sensor_id;sensor_type;location;lat;lon;timestamp;P1;durP1;ratioP1;P2;durP2;ratioP2
13672;SDS011;6909;52.202;9.876;2022-09-30T00:01:51;0.70;;;0.60;;
13672;SDS011;6909;52.202;9.876;2022-09-30T00:04:20;0.67;;;0.50;;
13672;SDS011;6909;52.202;9.876;2022-09-30T00:06:48;0.70;;;0.67;;
13672;SDS011;6909;52.202;9.876;2022-09-30T00:09:15;1.03;;;0.80;;
13672;SDS011;6909;52.202;9.876;2022-09-30T00:11:44;0.90;;;0.67;;
13672;SDS011;6909;52.202;9.876;2022-09-30T00:14:12;0.87;;;0.73;;
13672;SDS011;6909;52.202;9.876;2022-09-30T00:16:41;1.13;;;0.67;;
13672;SDS011;6909;52.202;9.876;2022-09-30T00:19:08;1.03;;;0.57;;
13672;SDS011;6909;52.202;9.876;2022-09-30T00:21:35;1.40;;;0.50;;
13672;SDS011;6909;52.202;9.876;2022-09-30T00:24:03;0.80;;;0.60;;
13672;SDS011;6909;52.202;9.876;2022-09-30T00:26:30;1.13;;;0.70;;
13672;SDS011;6909;52.202;9.876;2022-09-30T00:28:59;0.60;;;0.60;;
13672;SDS011;6909;52.202;9.876;2022-09-30T00:31:28;0.60;;;0.60;;
13672;SDS011;6909;52.202;9.876;2022-09-30T00:33:56;1.63;;;0.70;;
13672;SDS011;6909;52.202;9.876;2022-09-30T00:36:32;1.47;;;0.87;;
13672;SDS011;6909;52.202;9.876;2022-09-30T00:38:59;0.73;;;0.63;;
13672;SDS011;6909;52.202;9.876;2022-09-30T00:41:26;0.97;;;0.80;;
13672;SDS011;6909;52.202;9.876;2022-09-30T00:43:53;1.27;;;0.87;;
13672;SDS011;6909;52.202;9.876;2022-09-30T00:46:23;0.57;;;0.57;;
13672;SDS011;6909;52.202;9.876;2022-09-30T00:48:55;4.20;;;0.50;;
13672;SDS011;6909;52.202;9.876;2022-09-30T00:51:26;0.50;;;0.50;;
13672;SDS011;6909;52.202;9.876;2022-09-30T00:53:56;0.60;;;0.40;;
13672;SDS011;6909;52.202;9.876;2022-09-30T00:56:26;1.03;;;0.70;;
13672;SDS011;6909;52.202;9.876;2022-09-30T00:58:58;1.13;;;0.80;;
13672;SDS011;6909;52.202;9.876;2022-09-30T01:01:30;0.67;;;0.67;;
13672;SDS011;6909;52.202;9.876;2022-09-30T01:03:58;1.67;;;0.87;;
13672;SDS011;6909;52.202;9.876;2022-09-30T01:06:27;3.60;;;0.73;;
13672;SDS011;6909;52.202;9.876;2022-09-30T01:08:54;0.77;;;0.50;;
13672;SDS011;6909;52.202;9.876;2022-09-30T01:11:22;0.80;;;0.40;;
13672;SDS011;6909;52.202;9.876;2022-09-30T01:13:50;1.60;;;1.30;;
13672;SDS011;6909;52.202;9.876;2022-09-30T01:16:27;0.93;;;0.70;;
13672;SDS011;6909;52.202;9.876;2022-09-30T01:19:12;1.10;;;0.67;;
13672;SDS011;6909;52.202;9.876;2022-09-30T01:22:01;1.80;;;0.87;;
13672;SDS011;6909;52.202;9.876;2022-09-30T01:24:39;1.43;;;0.67;;
13672;SDS011;6909;52.202;9.876;2022-09-30T01:27:46;0.70;;;0.50;;
13672;SDS011;6909;52.202;9.876;2022-09-30T01:30:36;0.30;;;0.30;;
13672;SDS011;6909;52.202;9.876;2022-09-30T01:33:16;0.30;;;0.30;;
13672;SDS011;6909;52.202;9.876;2022-09-30T01:36:01;0.40;;;0.27;;
13672;SDS011;6909;52.202;9.876;2022-09-30T01:38:41;1.30;;;0.70;;
13672;SDS011;6909;52.202;9.876;2022-09-30T01:41:15;0.40;;;0.40;;
13672;SDS011;6909;52.202;9.876;2022-09-30T01:43:50;1.63;;;0.73;;
13672;SDS011;6909;52.202;9.876;2022-09-30T01:46:29;0.60;;;0.60;;
13672;SDS011;6909;52.202;9.876;2022-09-30T01:52:02;0.83;;;0.50;;
13672;SDS011;6909;52.202;9.876;2022-09-30T01:54:33;0.30;;;0.30;;
13672;SDS011;6909;52.202;9.876;2022-09-30T01:57:06;0.67;;;0.60;;
13672;SDS011;6909;52.202;9.876;2022-09-30T01:59:41;0.53;;;0.50;;
13672;SDS011;6909;52.202;9.876;2022-09-30T02:02:14;1.10;;;1.00;;
13672;SDS011;6909;52.202;9.876;2022-09-30T02:04:44;0.83;;;0.60;;
13672;SDS011;6909;52.202;9.876;2022-09-30T02:07:16;0.63;;;0.60;;
13672;SDS011;6909;52.202;9.876;2022-09-30T02:09:49;1.03;;;0.40;;
13672;SDS011;6909;52.202;9.876;2022-09-30T02:12:21;0.87;;;0.40;;
13672;SDS011;6909;52.202;9.876;2022-09-30T02:14:52;0.83;;;0.60;;
13672;SDS011;6909;52.202;9.876;2022-09-30T02:17:28;0.83;;;0.40;;
13672;SDS011;6909;52.202;9.876;2022-09-30T02:19:59;0.90;;;0.70;;
13672;SDS011;6909;52.202;9.876;2022-09-30T02:22:28;1.27;;;0.93;;
13672;SDS011;6909;52.202;9.876;2022-09-30T02:25:05;0.47;;;0.40;;
13672;SDS011;6909;52.202;9.876;2022-09-30T02:27:34;0.47;;;0.40;;
13672;SDS011;6909;52.202;9.876;2022-09-30T02:30:06;0.63;;;0.53;;
13672;SDS011;6909;52.202;9.876;2022-09-30T02:32:38;1.23;;;0.40;;
13672;SDS011;6909;52.202;9.876;2022-09-30T02:35:08;1.00;;;0.77;;
13672;SDS011;6909;52.202;9.876;2022-09-30T02:37:39;1.03;;;0.70;;
13672;SDS011;6909;52.202;9.876;2022-09-30T02:40:09;0.57;;;0.57;;
13672;SDS011;6909;52.202;9.876;2022-09-30T02:42:41;0.30;;;0.30;;
13672;SDS011;6909;52.202;9.876;2022-09-30T02:45:10;0.50;;;0.50;;
13672;SDS011;6909;52.202;9.876;2022-09-30T02:47:45;1.53;;;0.73;;
13672;SDS011;6909;52.202;9.876;2022-09-30T02:50:19;0.50;;;0.43;;
13672;SDS011;6909;52.202;9.876;2022-09-30T02:52:55;0.33;;;0.30;;
13672;SDS011;6909;52.202;9.876;2022-09-30T02:55:37;0.93;;;0.73;;
13672;SDS011;6909;52.202;9.876;2022-09-30T02:58:15;0.33;;;0.33;;
13672;SDS011;6909;52.202;9.876;2022-09-30T03:00:44;0.33;;;0.33;;
13672;SDS011;6909;52.202;9.876;2022-09-30T03:03:14;0.73;;;0.63;;
13672;SDS011;6909;52.202;9.876;2022-09-30T03:05:44;0.50;;;0.43;;
13672;SDS011;6909;52.202;9.876;2022-09-30T03:08:11;1.00;;;0.87;;
13672;SDS011;6909;52.202;9.876;2022-09-30T03:10:38;1.23;;;0.83;;
13672;SDS011;6909;52.202;9.876;2022-09-30T03:13:08;0.97;;;0.47;;
13672;SDS011;6909;52.202;9.876;2022-09-30T03:15:48;1.07;;;1.03;;
13672;SDS011;6909;52.202;9.876;2022-09-30T03:18:43;0.77;;;0.70;;
13672;SDS011;6909;52.202;9.876;2022-09-30T03:21:28;0.73;;;0.60;;
13672;SDS011;6909;52.202;9.876;2022-09-30T03:24:12;2.13;;;0.90;;
13672;SDS011;6909;52.202;9.876;2022-09-30T03:27:03;0.50;;;0.33;;
13672;SDS011;6909;52.202;9.876;2022-09-30T03:29:41;0.70;;;0.70;;
13672;SDS011;6909;52.202;9.876;2022-09-30T03:32:14;2.03;;;0.90;;
13672;SDS011;6909;52.202;9.876;2022-09-30T03:35:00;0.87;;;0.87;;
13672;SDS011;6909;52.202;9.876;2022-09-30T03:37:33;2.13;;;1.47;;
13672;SDS011;6909;52.202;9.876;2022-09-30T03:40:12;3.27;;;1.10;;
13672;SDS011;6909;52.202;9.876;2022-09-30T03:42:49;1.33;;;0.60;;
13672;SDS011;6909;52.202;9.876;2022-09-30T03:45:21;0.60;;;0.60;;
13672;SDS011;6909;52.202;9.876;2022-09-30T03:47:54;0.47;;;0.40;;
13672;SDS011;6909;52.202;9.876;2022-09-30T03:50:27;0.50;;;0.30;;
13672;SDS011;6909;52.202;9.876;2022-09-30T03:52:56;0.80;;;0.67;;
13672;SDS011;6909;52.202;9.876;2022-09-30T03:55:23;1.60;;;0.60;;
13672;SDS011;6909;52.202;9.876;2022-09-30T03:57:51;1.13;;;1.03;;
13672;SDS011;6909;52.202;9.876;2022-09-30T04:00:18;1.70;;;0.30;;
13672;SDS011;6909;52.202;9.876;2022-09-30T04:02:45;1.47;;;0.90;;
13672;SDS011;6909;52.202;9.876;2022-09-30T04:05:12;0.47;;;0.43;;
13672;SDS011;6909;52.202;9.876;2022-09-30T04:07:40;0.37;;;0.20;;
13672;SDS011;6909;52.202;9.876;2022-09-30T04:10:08;0.40;;;0.40;;
13672;SDS011;6909;52.202;9.876;2022-09-30T04:12:34;1.37;;;0.80;;
13672;SDS011;6909;52.202;9.876;2022-09-30T04:15:01;1.10;;;0.90;;
13672;SDS011;6909;52.202;9.876;2022-09-30T04:17:28;1.10;;;0.90;;
13672;SDS011;6909;52.202;9.876;2022-09-30T04:19:55;0.83;;;0.70;;
13672;SDS011;6909;52.202;9.876;2022-09-30T04:22:22;0.60;;;0.60;;
13672;SDS011;6909;52.202;9.876;2022-09-30T04:24:50;1.43;;;0.87;;
13672;SDS011;6909;52.202;9.876;2022-09-30T04:27:16;1.00;;;1.00;;
13672;SDS011;6909;52.202;9.876;2022-09-30T04:29:43;2.13;;;1.07;;
13672;SDS011;6909;52.202;9.876;2022-09-30T04:32:10;0.43;;;0.43;;
13672;SDS011;6909;52.202;9.876;2022-09-30T04:34:36;1.23;;;1.10;;
13672;SDS011;6909;52.202;9.876;2022-09-30T04:37:03;2.10;;;0.77;;
13672;SDS011;6909;52.202;9.876;2022-09-30T04:39:30;1.03;;;0.70;;
13672;SDS011;6909;52.202;9.876;2022-09-30T04:41:58;0.87;;;0.87;;
13672;SDS011;6909;52.202;9.876;2022-09-30T04:44:24;1.03;;;0.73;;
13672;SDS011;6909;52.202;9.876;2022-09-30T04:46:51;0.67;;;0.50;;
13672;SDS011;6909;52.202;9.876;2022-09-30T04:49:18;1.00;;;0.83;;
13672;SDS011;6909;52.202;9.876;2022-09-30T04:51:45;2.30;;;1.17;;
13672;SDS011;6909;52.202;9.876;2022-09-30T04:54:12;1.03;;;0.93;;
13672;SDS011;6909;52.202;9.876;2022-09-30T04:56:40;1.77;;;0.83;;
13672;SDS011;6909;52.202;9.876;2022-09-30T04:59:08;1.17;;;0.83;;
13672;SDS011;6909;52.202;9.876;2022-09-30T05:01:35;1.83;;;0.83;;
13672;SDS011;6909;52.202;9.876;2022-09-30T05:04:03;2.30;;;0.93;;
13672;SDS011;6909;52.202;9.876;2022-09-30T05:06:30;0.93;;;0.73;;
13672;SDS011;6909;52.202;9.876;2022-09-30T05:08:56;1.53;;;1.23;;
13672;SDS011;6909;52.202;9.876;2022-09-30T05:11:23;1.33;;;0.90;;
13672;SDS011;6909;52.202;9.876;2022-09-30T05:13:50;0.60;;;0.57;;
13672;SDS011;6909;52.202;9.876;2022-09-30T05:16:18;1.03;;;0.87;;
13672;SDS011;6909;52.202;9.876;2022-09-30T05:18:45;0.70;;;0.70;;
13672;SDS011;6909;52.202;9.876;2022-09-30T05:21:14;2.07;;;0.97;;
13672;SDS011;6909;52.202;9.876;2022-09-30T05:23:43;0.83;;;0.83;;
13672;SDS011;6909;52.202;9.876;2022-09-30T05:26:10;1.13;;;1.03;;
13672;SDS011;6909;52.202;9.876;2022-09-30T05:28:37;1.33;;;1.23;;
13672;SDS011;6909;52.202;9.876;2022-09-30T05:31:04;0.83;;;0.70;;
13672;SDS011;6909;52.202;9.876;2022-09-30T05:33:33;1.20;;;0.93;;
13672;SDS011;6909;52.202;9.876;2022-09-30T05:36:03;1.00;;;0.97;;
13672;SDS011;6909;52.202;9.876;2022-09-30T05:38:31;1.80;;;0.87;;
13672;SDS011;6909;52.202;9.876;2022-09-30T05:41:04;1.10;;;1.10;;
13672;SDS011;6909;52.202;9.876;2022-09-30T05:43:32;2.17;;;1.50;;
13672;SDS011;6909;52.202;9.876;2022-09-30T05:45:59;1.37;;;1.27;;
13672;SDS011;6909;52.202;9.876;2022-09-30T05:48:25;1.47;;;1.20;;
13672;SDS011;6909;52.202;9.876;2022-09-30T05:50:54;1.03;;;0.93;;
13672;SDS011;6909;52.202;9.876;2022-09-30T05:53:22;1.37;;;0.73;;
13672;SDS011;6909;52.202;9.876;2022-09-30T05:55:50;1.87;;;1.40;;
13672;SDS011;6909;52.202;9.876;2022-09-30T05:58:17;2.87;;;1.33;;
13672;SDS011;6909;52.202;9.876;2022-09-30T06:00:45;1.10;;;1.00;;
13672;SDS011;6909;52.202;9.876;2022-09-30T06:03:13;0.90;;;0.90;;
13672;SDS011;6909;52.202;9.876;2022-09-30T06:05:41;0.93;;;0.87;;
13672;SDS011;6909;52.202;9.876;2022-09-30T06:08:10;0.80;;;0.80;;
13672;SDS011;6909;52.202;9.876;2022-09-30T06:10:38;1.37;;;1.03;;
13672;SDS011;6909;52.202;9.876;2022-09-30T06:13:06;1.13;;;0.70;;
13672;SDS011;6909;52.202;9.876;2022-09-30T06:15:32;1.10;;;1.00;;
13672;SDS011;6909;52.202;9.876;2022-09-30T06:18:01;1.27;;;1.17;;
13672;SDS011;6909;52.202;9.876;2022-09-30T06:20:33;1.37;;;1.37;;
13672;SDS011;6909;52.202;9.876;2022-09-30T06:23:01;1.53;;;1.13;;
13672;SDS011;6909;52.202;9.876;2022-09-30T06:25:31;1.40;;;1.33;;
13672;SDS011;6909;52.202;9.876;2022-09-30T06:28:03;2.53;;;1.63;;
13672;SDS011;6909;52.202;9.876;2022-09-30T06:30:36;1.43;;;1.33;;
13672;SDS011;6909;52.202;9.876;2022-09-30T06:33:06;2.30;;;1.30;;
13672;SDS011;6909;52.202;9.876;2022-09-30T06:35:45;1.40;;;1.30;;
13672;SDS011;6909;52.202;9.876;2022-09-30T06:38:25;1.55;;;1.35;;
13672;SDS011;6909;52.202;9.876;2022-09-30T06:40:59;1.48;;;1.38;;
13672;SDS011;6909;52.202;9.876;2022-09-30T06:43:26;1.88;;;1.70;;
13672;SDS011;6909;52.202;9.876;2022-09-30T06:45:54;1.30;;;1.20;;
13672;SDS011;6909;52.202;9.876;2022-09-30T06:48:25;1.45;;;1.35;;
13672;SDS011;6909;52.202;9.876;2022-09-30T06:50:56;1.80;;;1.67;;
13672;SDS011;6909;52.202;9.876;2022-09-30T06:53:24;5.45;;;1.90;;
13672;SDS011;6909;52.202;9.876;2022-09-30T06:55:53;1.35;;;1.25;;
13672;SDS011;6909;52.202;9.876;2022-09-30T06:58:22;1.58;;;1.40;;
13672;SDS011;6909;52.202;9.876;2022-09-30T07:00:56;1.88;;;1.75;;
13672;SDS011;6909;52.202;9.876;2022-09-30T07:03:25;1.58;;;1.42;;
13672;SDS011;6909;52.202;9.876;2022-09-30T07:05:54;1.90;;;1.75;;
13672;SDS011;6909;52.202;9.876;2022-09-30T07:08:22;1.50;;;1.40;;
13672;SDS011;6909;52.202;9.876;2022-09-30T07:10:50;1.45;;;1.35;;
13672;SDS011;6909;52.202;9.876;2022-09-30T07:13:17;1.80;;;1.70;;
13672;SDS011;6909;52.202;9.876;2022-09-30T07:15:45;2.30;;;1.92;;
13672;SDS011;6909;52.202;9.876;2022-09-30T07:18:12;1.98;;;1.67;;
13672;SDS011;6909;52.202;9.876;2022-09-30T07:20:46;1.80;;;1.67;;
13672;SDS011;6909;52.202;9.876;2022-09-30T07:23:13;2.08;;;1.80;;
13672;SDS011;6909;52.202;9.876;2022-09-30T07:25:47;2.33;;;1.90;;
13672;SDS011;6909;52.202;9.876;2022-09-30T07:28:14;3.60;;;2.55;;
13672;SDS011;6909;52.202;9.876;2022-09-30T07:30:41;2.50;;;2.30;;
13672;SDS011;6909;52.202;9.876;2022-09-30T07:33:09;5.82;;;2.00;;
13672;SDS011;6909;52.202;9.876;2022-09-30T07:35:40;5.78;;;2.20;;
13672;SDS011;6909;52.202;9.876;2022-09-30T07:38:15;3.90;;;1.92;;
13672;SDS011;6909;52.202;9.876;2022-09-30T07:40:49;1.70;;;1.60;;
13672;SDS011;6909;52.202;9.876;2022-09-30T07:43:17;2.08;;;1.92;;
13672;SDS011;6909;52.202;9.876;2022-09-30T07:45:45;2.60;;;2.38;;
13672;SDS011;6909;52.202;9.876;2022-09-30T07:48:13;2.33;;;2.15;;
13672;SDS011;6909;52.202;9.876;2022-09-30T07:50:54;2.25;;;2.05;;
13672;SDS011;6909;52.202;9.876;2022-09-30T07:53:21;1.77;;;1.67;;
13672;SDS011;6909;52.202;9.876;2022-09-30T07:55:47;1.55;;;1.45;;
13672;SDS011;6909;52.202;9.876;2022-09-30T07:58:14;1.80;;;1.58;;
13672;SDS011;6909;52.202;9.876;2022-09-30T08:00:41;1.97;;;1.73;;
13672;SDS011;6909;52.202;9.876;2022-09-30T08:03:07;1.63;;;1.50;;
13672;SDS011;6909;52.202;9.876;2022-09-30T08:05:39;2.27;;;1.67;;
13672;SDS011;6909;52.202;9.876;2022-09-30T08:08:08;1.50;;;1.40;;
13672;SDS011;6909;52.202;9.876;2022-09-30T08:10:35;1.77;;;1.37;;
13672;SDS011;6909;52.202;9.876;2022-09-30T08:13:02;1.33;;;1.20;;
13672;SDS011;6909;52.202;9.876;2022-09-30T08:15:28;2.10;;;1.70;;
13672;SDS011;6909;52.202;9.876;2022-09-30T08:17:55;1.30;;;1.10;;
13672;SDS011;6909;52.202;9.876;2022-09-30T08:20:22;1.70;;;1.20;;
13672;SDS011;6909;52.202;9.876;2022-09-30T08:22:52;2.10;;;1.53;;
13672;SDS011;6909;52.202;9.876;2022-09-30T08:25:19;1.50;;;1.40;;
13672;SDS011;6909;52.202;9.876;2022-09-30T08:27:46;1.77;;;1.20;;
13672;SDS011;6909;52.202;9.876;2022-09-30T08:30:13;1.70;;;1.27;;
13672;SDS011;6909;52.202;9.876;2022-09-30T08:32:39;1.50;;;1.40;;
13672;SDS011;6909;52.202;9.876;2022-09-30T08:35:06;1.17;;;1.03;;
13672;SDS011;6909;52.202;9.876;2022-09-30T08:37:33;2.10;;;1.50;;
13672;SDS011;6909;52.202;9.876;2022-09-30T08:40:01;1.80;;;1.37;;
13672;SDS011;6909;52.202;9.876;2022-09-30T08:42:32;1.87;;;1.50;;
13672;SDS011;6909;52.202;9.876;2022-09-30T08:45:10;1.73;;;1.43;;
13672;SDS011;6909;52.202;9.876;2022-09-30T08:47:45;1.40;;;1.30;;
13672;SDS011;6909;52.202;9.876;2022-09-30T08:50:20;1.60;;;1.47;;
13672;SDS011;6909;52.202;9.876;2022-09-30T08:52:54;2.40;;;1.60;;
13672;SDS011;6909;52.202;9.876;2022-09-30T08:55:28;1.87;;;1.50;;
13672;SDS011;6909;52.202;9.876;2022-09-30T08:58:00;2.33;;;1.70;;
13672;SDS011;6909;52.202;9.876;2022-09-30T09:00:29;1.57;;;1.27;;
13672;SDS011;6909;52.202;9.876;2022-09-30T09:02:56;2.33;;;1.90;;
13672;SDS011;6909;52.202;9.876;2022-09-30T09:05:28;1.40;;;1.30;;
13672;SDS011;6909;52.202;9.876;2022-09-30T09:08:03;1.83;;;1.50;;
13672;SDS011;6909;52.202;9.876;2022-09-30T09:10:39;1.40;;;1.23;;
13672;SDS011;6909;52.202;9.876;2022-09-30T09:13:11;1.63;;;1.30;;
13672;SDS011;6909;52.202;9.876;2022-09-30T09:15:52;2.10;;;1.77;;
13672;SDS011;6909;52.202;9.876;2022-09-30T09:21:27;1.70;;;1.33;;
13672;SDS011;6909;52.202;9.876;2022-09-30T09:24:01;1.43;;;1.17;;
13672;SDS011;6909;52.202;9.876;2022-09-30T09:26:31;4.23;;;1.83;;
13672;SDS011;6909;52.202;9.876;2022-09-30T09:29:07;2.10;;;1.47;;
13672;SDS011;6909;52.202;9.876;2022-09-30T09:31:44;1.50;;;1.33;;
13672;SDS011;6909;52.202;9.876;2022-09-30T09:34:13;1.73;;;1.30;;
13672;SDS011;6909;52.202;9.876;2022-09-30T09:36:52;1.77;;;1.67;;
13672;SDS011;6909;52.202;9.876;2022-09-30T09:39:37;1.73;;;1.50;;
13672;SDS011;6909;52.202;9.876;2022-09-30T09:42:28;1.90;;;1.63;;
13672;SDS011;6909;52.202;9.876;2022-09-30T09:45:02;2.33;;;1.53;;
13672;SDS011;6909;52.202;9.876;2022-09-30T09:47:36;2.07;;;1.77;;
13672;SDS011;6909;52.202;9.876;2022-09-30T09:50:05;1.80;;;1.47;;
13672;SDS011;6909;52.202;9.876;2022-09-30T09:52:46;1.87;;;1.57;;
13672;SDS011;6909;52.202;9.876;2022-09-30T09:55:23;2.40;;;1.93;;
13672;SDS011;6909;52.202;9.876;2022-09-30T09:58:04;1.83;;;1.67;;
13672;SDS011;6909;52.202;9.876;2022-09-30T10:00:32;1.90;;;1.80;;
13672;SDS011;6909;52.202;9.876;2022-09-30T10:03:17;2.47;;;1.97;;
13672;SDS011;6909;52.202;9.876;2022-09-30T10:05:58;2.30;;;1.53;;
13672;SDS011;6909;52.202;9.876;2022-09-30T10:08:26;2.30;;;2.10;;
13672;SDS011;6909;52.202;9.876;2022-09-30T10:10:57;2.57;;;1.33;;
13672;SDS011;6909;52.202;9.876;2022-09-30T10:13:28;2.03;;;1.17;;
13672;SDS011;6909;52.202;9.876;2022-09-30T10:15:59;2.40;;;2.20;;
13672;SDS011;6909;52.202;9.876;2022-09-30T10:18:27;2.43;;;1.70;;
13672;SDS011;6909;52.202;9.876;2022-09-30T10:20:58;1.63;;;1.40;;
13672;SDS011;6909;52.202;9.876;2022-09-30T10:23:28;1.43;;;1.33;;
13672;SDS011;6909;52.202;9.876;2022-09-30T10:25:57;2.63;;;1.47;;
13672;SDS011;6909;52.202;9.876;2022-09-30T10:28:32;1.67;;;1.57;;
13672;SDS011;6909;52.202;9.876;2022-09-30T10:31:01;1.80;;;1.60;;
13672;SDS011;6909;52.202;9.876;2022-09-30T10:33:32;1.57;;;1.37;;
13672;SDS011;6909;52.202;9.876;2022-09-30T10:36:05;1.63;;;1.53;;
13672;SDS011;6909;52.202;9.876;2022-09-30T10:38:35;1.47;;;1.23;;
13672;SDS011;6909;52.202;9.876;2022-09-30T10:41:09;3.30;;;1.50;;
13672;SDS011;6909;52.202;9.876;2022-09-30T10:43:42;1.33;;;1.23;;
13672;SDS011;6909;52.202;9.876;2022-09-30T10:46:09;2.33;;;2.03;;
13672;SDS011;6909;52.202;9.876;2022-09-30T10:48:36;2.03;;;1.10;;
13672;SDS011;6909;52.202;9.876;2022-09-30T10:51:04;2.33;;;1.50;;
13672;SDS011;6909;52.202;9.876;2022-09-30T10:53:46;2.20;;;1.80;;
13672;SDS011;6909;52.202;9.876;2022-09-30T10:56:13;2.33;;;1.80;;
13672;SDS011;6909;52.202;9.876;2022-09-30T10:59:00;3.27;;;1.93;;
13672;SDS011;6909;52.202;9.876;2022-09-30T11:01:30;2.03;;;1.60;;
13672;SDS011;6909;52.202;9.876;2022-09-30T11:04:02;1.87;;;1.67;;
13672;SDS011;6909;52.202;9.876;2022-09-30T11:06:34;1.67;;;1.50;;
13672;SDS011;6909;52.202;9.876;2022-09-30T11:09:05;2.17;;;1.97;;
13672;SDS011;6909;52.202;9.876;2022-09-30T11:11:38;1.87;;;1.70;;
13672;SDS011;6909;52.202;9.876;2022-09-30T11:14:28;2.00;;;1.73;;
13672;SDS011;6909;52.202;9.876;2022-09-30T11:17:04;3.17;;;2.87;;
13672;SDS011;6909;52.202;9.876;2022-09-30T11:19:43;1.60;;;1.50;;
13672;SDS011;6909;52.202;9.876;2022-09-30T11:22:20;2.93;;;2.43;;
13672;SDS011;6909;52.202;9.876;2022-09-30T11:24:53;2.50;;;1.97;;
13672;SDS011;6909;52.202;9.876;2022-09-30T11:27:22;2.80;;;2.03;;
13672;SDS011;6909;52.202;9.876;2022-09-30T11:30:07;1.90;;;1.70;;
13672;SDS011;6909;52.202;9.876;2022-09-30T11:32:47;2.63;;;2.07;;
13672;SDS011;6909;52.202;9.876;2022-09-30T11:38:18;3.53;;;2.57;;
13672;SDS011;6909;52.202;9.876;2022-09-30T11:41:08;3.33;;;3.03;;
13672;SDS011;6909;52.202;9.876;2022-09-30T11:43:44;2.30;;;2.10;;
13672;SDS011;6909;52.202;9.876;2022-09-30T11:46:28;2.73;;;2.13;;
13672;SDS011;6909;52.202;9.876;2022-09-30T11:52:05;2.10;;;1.60;;
13672;SDS011;6909;52.202;9.876;2022-09-30T11:54:45;1.60;;;1.50;;
13672;SDS011;6909;52.202;9.876;2022-09-30T11:57:23;1.60;;;1.50;;
13672;SDS011;6909;52.202;9.876;2022-09-30T11:59:58;2.63;;;1.90;;
13672;SDS011;6909;52.202;9.876;2022-09-30T12:02:30;2.47;;;2.13;;
13672;SDS011;6909;52.202;9.876;2022-09-30T12:05:02;2.17;;;1.67;;
13672;SDS011;6909;52.202;9.876;2022-09-30T12:07:35;1.90;;;1.70;;
13672;SDS011;6909;52.202;9.876;2022-09-30T12:10:07;2.17;;;1.87;;
13672;SDS011;6909;52.202;9.876;2022-09-30T12:12:45;1.73;;;1.60;;
13672;SDS011;6909;52.202;9.876;2022-09-30T12:15:15;1.33;;;1.23;;
13672;SDS011;6909;52.202;9.876;2022-09-30T12:17:47;2.47;;;1.67;;
13672;SDS011;6909;52.202;9.876;2022-09-30T12:20:20;2.40;;;1.63;;
13672;SDS011;6909;52.202;9.876;2022-09-30T12:22:51;2.00;;;1.67;;
13672;SDS011;6909;52.202;9.876;2022-09-30T12:25:21;1.43;;;1.33;;
13672;SDS011;6909;52.202;9.876;2022-09-30T12:27:52;1.40;;;1.23;;
13672;SDS011;6909;52.202;9.876;2022-09-30T12:30:23;1.13;;;1.00;;
13672;SDS011;6909;52.202;9.876;2022-09-30T12:33:01;1.10;;;1.00;;
13672;SDS011;6909;52.202;9.876;2022-09-30T12:35:51;1.10;;;1.10;;
13672;SDS011;6909;52.202;9.876;2022-09-30T12:38:35;1.30;;;1.30;;
13672;SDS011;6909;52.202;9.876;2022-09-30T12:41:20;1.13;;;0.97;;
13672;SDS011;6909;52.202;9.876;2022-09-30T12:44:02;1.17;;;0.80;;
13672;SDS011;6909;52.202;9.876;2022-09-30T12:46:52;0.80;;;0.80;;
13672;SDS011;6909;52.202;9.876;2022-09-30T12:49:32;1.23;;;1.00;;
13672;SDS011;6909;52.202;9.876;2022-09-30T12:52:03;1.13;;;0.80;;
13672;SDS011;6909;52.202;9.876;2022-09-30T12:54:32;0.97;;;0.93;;
13672;SDS011;6909;52.202;9.876;2022-09-30T12:57:04;1.50;;;1.27;;
13672;SDS011;6909;52.202;9.876;2022-09-30T12:59:33;1.03;;;0.77;;
13672;SDS011;6909;52.202;9.876;2022-09-30T13:02:03;0.57;;;0.57;;
13672;SDS011;6909;52.202;9.876;2022-09-30T13:04:34;1.20;;;0.90;;
13672;SDS011;6909;52.202;9.876;2022-09-30T13:07:04;2.20;;;0.80;;
13672;SDS011;6909;52.202;9.876;2022-09-30T13:09:57;0.40;;;0.40;;
13672;SDS011;6909;52.202;9.876;2022-09-30T13:12:27;0.70;;;0.70;;
13672;SDS011;6909;52.202;9.876;2022-09-30T13:15:21;0.40;;;0.40;;
13672;SDS011;6909;52.202;9.876;2022-09-30T13:21:17;0.70;;;0.70;;
13672;SDS011;6909;52.202;9.876;2022-09-30T13:23:46;0.60;;;0.50;;
13672;SDS011;6909;52.202;9.876;2022-09-30T13:29:26;1.00;;;0.40;;
13672;SDS011;6909;52.202;9.876;2022-09-30T13:32:04;0.40;;;0.40;;
13672;SDS011;6909;52.202;9.876;2022-09-30T13:34:32;0.70;;;0.60;;
13672;SDS011;6909;52.202;9.876;2022-09-30T13:37:28;0.87;;;0.77;;
13672;SDS011;6909;52.202;9.876;2022-09-30T13:40:03;0.40;;;0.37;;
13672;SDS011;6909;52.202;9.876;2022-09-30T13:42:40;0.50;;;0.50;;
13672;SDS011;6909;52.202;9.876;2022-09-30T13:45:15;1.00;;;0.87;;
13672;SDS011;6909;52.202;9.876;2022-09-30T13:47:47;1.30;;;0.73;;
13672;SDS011;6909;52.202;9.876;2022-09-30T13:50:16;1.80;;;1.03;;
13672;SDS011;6909;52.202;9.876;2022-09-30T13:52:48;0.60;;;0.60;;
13672;SDS011;6909;52.202;9.876;2022-09-30T13:55:19;0.80;;;0.80;;
13672;SDS011;6909;52.202;9.876;2022-09-30T13:57:51;0.77;;;0.77;;
13672;SDS011;6909;52.202;9.876;2022-09-30T14:00:35;1.03;;;0.70;;
13672;SDS011;6909;52.202;9.876;2022-09-30T14:03:15;1.20;;;1.10;;
13672;SDS011;6909;52.202;9.876;2022-09-30T14:06:01;0.50;;;0.47;;
13672;SDS011;6909;52.202;9.876;2022-09-30T14:14:39;0.80;;;0.80;;
13672;SDS011;6909;52.202;9.876;2022-09-30T14:17:30;0.70;;;0.53;;
13672;SDS011;6909;52.202;9.876;2022-09-30T14:20:11;0.83;;;0.50;;
13672;SDS011;6909;52.202;9.876;2022-09-30T14:22:49;0.53;;;0.53;;
13672;SDS011;6909;52.202;9.876;2022-09-30T14:25:17;0.50;;;0.50;;
13672;SDS011;6909;52.202;9.876;2022-09-30T14:30:34;0.70;;;0.60;;
13672;SDS011;6909;52.202;9.876;2022-09-30T14:33:08;0.50;;;0.50;;
13672;SDS011;6909;52.202;9.876;2022-09-30T14:35:36;0.83;;;0.50;;
13672;SDS011;6909;52.202;9.876;2022-09-30T14:38:12;1.13;;;0.70;;
13672;SDS011;6909;52.202;9.876;2022-09-30T14:40:48;0.80;;;0.80;;
13672;SDS011;6909;52.202;9.876;2022-09-30T14:43:19;0.67;;;0.60;;
13672;SDS011;6909;52.202;9.876;2022-09-30T14:45:49;2.00;;;1.10;;
13672;SDS011;6909;52.202;9.876;2022-09-30T14:48:20;0.80;;;0.63;;
13672;SDS011;6909;52.202;9.876;2022-09-30T14:50:51;0.70;;;0.70;;
13672;SDS011;6909;52.202;9.876;2022-09-30T14:53:24;0.50;;;0.50;;
13672;SDS011;6909;52.202;9.876;2022-09-30T14:55:54;1.33;;;0.83;;
13672;SDS011;6909;52.202;9.876;2022-09-30T14:58:22;1.13;;;0.80;;
13672;SDS011;6909;52.202;9.876;2022-09-30T15:00:55;0.90;;;0.90;;
13672;SDS011;6909;52.202;9.876;2022-09-30T15:03:26;0.73;;;0.70;;
13672;SDS011;6909;52.202;9.876;2022-09-30T15:05:53;0.70;;;0.70;;
13672;SDS011;6909;52.202;9.876;2022-09-30T15:08:21;0.70;;;0.70;;
13672;SDS011;6909;52.202;9.876;2022-09-30T15:10:48;1.90;;;0.90;;
13672;SDS011;6909;52.202;9.876;2022-09-30T15:13:18;0.50;;;0.43;;
13672;SDS011;6909;52.202;9.876;2022-09-30T15:15:47;0.43;;;0.43;;
13672;SDS011;6909;52.202;9.876;2022-09-30T15:18:21;0.50;;;0.50;;
13672;SDS011;6909;52.202;9.876;2022-09-30T15:20:53;1.07;;;0.97;;
13672;SDS011;6909;52.202;9.876;2022-09-30T15:23:24;0.50;;;0.50;;
13672;SDS011;6909;52.202;9.876;2022-09-30T15:25:52;0.60;;;0.60;;
13672;SDS011;6909;52.202;9.876;2022-09-30T15:28:22;0.57;;;0.50;;
13672;SDS011;6909;52.202;9.876;2022-09-30T15:30:49;0.67;;;0.50;;
13672;SDS011;6909;52.202;9.876;2022-09-30T15:33:18;0.73;;;0.47;;
13672;SDS011;6909;52.202;9.876;2022-09-30T15:35:48;0.67;;;0.67;;
13672;SDS011;6909;52.202;9.876;2022-09-30T15:38:16;1.00;;;0.70;;
13672;SDS011;6909;52.202;9.876;2022-09-30T15:40:46;0.43;;;0.43;;
13672;SDS011;6909;52.202;9.876;2022-09-30T15:48:58;0.90;;;0.73;;
13672;SDS011;6909;52.202;9.876;2022-09-30T15:51:34;1.20;;;0.87;;
13672;SDS011;6909;52.202;9.876;2022-09-30T15:56:57;0.63;;;0.60;;
13672;SDS011;6909;52.202;9.876;2022-09-30T16:02:27;0.60;;;0.60;;
13672;SDS011;6909;52.202;9.876;2022-09-30T16:04:55;0.87;;;0.80;;
13672;SDS011;6909;52.202;9.876;2022-09-30T16:07:24;0.70;;;0.57;;
13672;SDS011;6909;52.202;9.876;2022-09-30T16:09:52;1.03;;;0.70;;